Time;durP1;ratioP1;P1;durP2;ratioP2;P2;SDS_P1;SDS_P2;PMS_P1;PMS_P2;Temp;Humidity;BMP_temperature;BMP_pressure;BME280_temperature;BME280_humidity;BME280_pressure;Samples;Min_cycle;Max_cycle;Signal;HPM_P1;HPM_P2
2021/09/17 00:00:08;;;;;;;34.03;16.42;;;;;;;;;;4980466;28;20048;-60
2021/09/17 00:02:36;;;;;;;36.00;16.90;;;;;;;;;;4976345;28;20091;-60
2021/09/17 00:05:02;;;;;;;28.52;14.85;;;;;;;;;;4995263;28;20045;-60
2021/09/17 00:07:30;;;;;;;31.83;15.23;;;;;;;;;;4973260;28;20041;-60
2021/09/17 00:10:03;;;;;;;33.78;15.93;;;;;;;;;;4977345;28;20026;-60
2021/09/17 00:12:33;;;;;;;29.67;15.52;;;;;;;;;;4979698;28;20029;-60
2021/09/17 00:15:01;;;;;;;36.15;17.25;;;;;;;;;;4985732;28;20094;-60
2021/09/17 00:17:29;;;;;;;35.65;17.25;;;;;;;;;;4964750;28;20734;-60
2021/09/17 00:19:54;;;;;;;31.75;16.95;;;;;;;;;;4987282;28;20179;-60
2021/09/17 00:22:22;;;;;;;38.47;17.10;;;;;;;;;;4995514;28;20065;-60
2021/09/17 00:24:50;;;;;;;43.28;16.88;;;;;;;;;;4997508;28;20149;-59
2021/09/17 00:27:15;;;;;;;34.42;16.17;;;;;;;;;;4979449;28;20038;-59
2021/09/17 00:29:44;;;;;;;31.45;16.38;;;;;;;;;;4994877;28;20029;-60
2021/09/17 00:32:09;;;;;;;36.13;17.20;;;;;;;;;;4988607;28;20091;-60
2021/09/17 00:34:37;;;;;;;41.28;17.58;;;;;;;;;;4992415;28;20030;-59
2021/09/17 00:37:05;;;;;;;39.97;17.10;;;;;;;;;;4990140;28;20048;-59
2021/09/17 00:39:31;;;;;;;40.20;17.35;;;;;;;;;;4984246;28;20155;-59
2021/09/17 00:42:01;;;;;;;35.22;16.77;;;;;;;;;;4998507;28;20113;-59
2021/09/17 00:44:27;;;;;;;38.90;17.25;;;;;;;;;;4995950;28;20045;-59
2021/09/17 00:46:55;;;;;;;34.90;17.10;;;;;;;;;;4998291;28;20096;-59
2021/09/17 00:49:24;;;;;;;32.80;15.85;;;;;;;;;;5011833;28;20124;-59
2021/09/17 00:51:50;;;;;;;40.85;18.90;;;;;;;;;;4997028;28;20090;-59
2021/09/17 00:54:18;;;;;;;39.75;18.65;;;;;;;;;;4997932;28;20030;-60
2021/09/17 00:56:46;;;;;;;39.08;17.75;;;;;;;;;;5006361;28;20073;-60
2021/09/17 00:59:17;;;;;;;40.85;17.95;;;;;;;;;;4996337;28;20037;-59
2021/09/17 01:01:45;;;;;;;37.25;18.70;;;;;;;;;;4997893;28;20108;-59
2021/09/17 01:04:13;;;;;;;42.30;18.67;;;;;;;;;;4989384;28;20033;-60
2021/09/17 01:06:44;;;;;;;40.60;18.05;;;;;;;;;;4997896;28;20095;-58
2021/09/17 01:09:17;;;;;;;35.05;18.42;;;;;;;;;;4997278;28;20686;-59
2021/09/17 01:11:45;;;;;;;36.00;17.08;;;;;;;;;;4976496;28;20165;-60
2021/09/17 01:14:16;;;;;;;41.72;18.95;;;;;;;;;;4993437;28;20429;-59
2021/09/17 01:16:44;;;;;;;35.00;16.88;;;;;;;;;;5006327;28;20129;-59
2021/09/17 01:19:10;;;;;;;42.42;17.67;;;;;;;;;;4996557;28;20033;-59
2021/09/17 01:21:39;;;;;;;41.47;17.23;;;;;;;;;;5010949;28;20033;-60
2021/09/17 01:24:04;;;;;;;50.45;18.15;;;;;;;;;;4987894;28;20044;-59
2021/09/17 01:26:33;;;;;;;44.03;18.92;;;;;;;;;;4997555;28;20029;-60
2021/09/17 01:28:59;;;;;;;38.13;19.52;;;;;;;;;;4990992;28;20049;-60
2021/09/17 01:31:25;;;;;;;35.95;19.33;;;;;;;;;;4997166;28;20069;-60
2021/09/17 01:33:53;;;;;;;41.53;17.95;;;;;;;;;;4978985;28;20037;-60
2021/09/17 01:36:18;;;;;;;40.58;18.17;;;;;;;;;;4993086;28;20949;-60
2021/09/17 01:38:44;;;;;;;36.97;17.50;;;;;;;;;;4965037;28;20048;-59
2021/09/17 01:41:12;;;;;;;39.40;18.80;;;;;;;;;;4982240;28;20040;-59
2021/09/17 01:43:38;;;;;;;40.60;18.55;;;;;;;;;;4986175;28;20033;-59
2021/09/17 01:46:04;;;;;;;33.13;17.60;;;;;;;;;;4997406;28;20033;-60
2021/09/17 01:48:30;;;;;;;46.47;19.38;;;;;;;;;;4978337;28;20052;-60
2021/09/17 01:50:56;;;;;;;38.85;18.30;;;;;;;;;;5014085;28;20026;-64
2021/09/17 01:53:24;;;;;;;44.05;19.73;;;;;;;;;;5004822;28;21354;-60
2021/09/17 01:55:54;;;;;;;40.30;18.73;;;;;;;;;;5012571;28;20026;-60
2021/09/17 01:58:23;;;;;;;39.83;19.52;;;;;;;;;;4995658;28;20030;-59
2021/09/17 02:00:51;;;;;;;41.60;18.95;;;;;;;;;;4995875;28;20786;-60
2021/09/17 02:03:16;;;;;;;46.13;19.65;;;;;;;;;;4991088;28;21282;-59
2021/09/17 02:05:42;;;;;;;35.95;18.73;;;;;;;;;;4996156;28;20025;-60
2021/09/17 02:08:13;;;;;;;40.13;19.60;;;;;;;;;;4973582;28;20172;-60
2021/09/17 02:10:38;;;;;;;38.28;17.95;;;;;;;;;;4994331;28;20378;-59
2021/09/17 02:13:11;;;;;;;37.08;17.85;;;;;;;;;;4995244;28;20041;-60
2021/09/17 02:15:36;;;;;;;37.55;18.75;;;;;;;;;;4996817;28;20088;-60
2021/09/17 02:18:04;;;;;;;40.38;18.50;;;;;;;;;;4979341;28;21059;-60
2021/09/17 02:20:35;;;;;;;44.72;19.40;;;;;;;;;;4992786;28;21952;-60
2021/09/17 02:23:01;;;;;;;45.00;17.80;;;;;;;;;;4994061;28;20029;-60
2021/09/17 02:25:27;;;;;;;35.88;17.20;;;;;;;;;;4997506;28;20038;-59
2021/09/17 02:27:56;;;;;;;38.20;18.30;;;;;;;;;;4996477;28;22038;-62
2021/09/17 02:30:22;;;;;;;43.45;19.30;;;;;;;;;;4987001;28;20029;-59
2021/09/17 02:32:47;;;;;;;34.70;16.95;;;;;;;;;;4997062;28;21363;-59
2021/09/17 02:35:13;;;;;;;32.65;16.88;;;;;;;;;;4995534;28;20378;-59
2021/09/17 02:37:39;;;;;;;31.70;16.60;;;;;;;;;;4980974;28;20033;-59
2021/09/17 02:40:11;;;;;;;40.47;17.50;;;;;;;;;;5003255;28;20113;-59
2021/09/17 02:42:38;;;;;;;33.28;17.08;;;;;;;;;;5009977;28;20849;-59
2021/09/17 02:45:09;;;;;;;36.00;17.27;;;;;;;;;;5011785;28;20458;-60
2021/09/17 02:47:40;;;;;;;39.58;18.27;;;;;;;;;;4995296;28;20046;-59
2021/09/17 02:50:07;;;;;;;39.35;17.20;;;;;;;;;;4989428;28;20589;-59
2021/09/17 02:52:32;;;;;;;38.28;18.63;;;;;;;;;;4994708;28;20132;-59
2021/09/17 02:55:02;;;;;;;47.42;20.30;;;;;;;;;;4979803;28;20038;-59
2021/09/17 02:57:35;;;;;;;43.83;20.10;;;;;;;;;;5007338;28;20025;-59
2021/09/17 03:00:01;;;;;;;31.27;16.48;;;;;;;;;;4994440;28;20075;-59
2021/09/17 03:02:30;;;;;;;35.40;17.40;;;;;;;;;;4994957;28;20045;-59
2021/09/17 03:05:01;;;;;;;35.28;18.02;;;;;;;;;;4997102;28;20099;-59
2021/09/17 03:07:27;;;;;;;33.83;17.30;;;;;;;;;;4977759;28;20061;-60
2021/09/17 03:09:53;;;;;;;37.78;16.55;;;;;;;;;;4979643;28;20133;-59
2021/09/17 03:12:21;;;;;;;35.50;18.15;;;;;;;;;;5010223;28;20076;-59
2021/09/17 03:14:47;;;;;;;40.92;18.27;;;;;;;;;;4993814;28;20120;-59
2021/09/17 03:17:14;;;;;;;39.22;18.48;;;;;;;;;;4995676;28;20048;-59
2021/09/17 03:19:42;;;;;;;39.80;17.88;;;;;;;;;;4979374;28;20038;-59
2021/09/17 03:22:10;;;;;;;33.60;16.58;;;;;;;;;;4991287;28;20084;-59
2021/09/17 03:24:38;;;;;;;39.55;18.73;;;;;;;;;;4978150;28;20572;-59
2021/09/17 03:27:06;;;;;;;37.85;19.42;;;;;;;;;;4978887;28;20069;-59
2021/09/17 03:29:33;;;;;;;40.83;19.80;;;;;;;;;;4993070;28;22116;-59
2021/09/17 03:32:02;;;;;;;47.00;18.23;;;;;;;;;;4980689;28;20038;-59
2021/09/17 03:34:28;;;;;;;39.63;19.17;;;;;;;;;;4995413;28;20208;-59
2021/09/17 03:36:56;;;;;;;47.92;17.88;;;;;;;;;;4987292;28;20056;-60
2021/09/17 03:39:24;;;;;;;45.80;19.27;;;;;;;;;;4993943;28;20045;-59
2021/09/17 03:41:50;;;;;;;41.45;19.48;;;;;;;;;;5007963;28;20072;-59
2021/09/17 03:44:18;;;;;;;41.05;20.30;;;;;;;;;;4959503;28;20136;-60
2021/09/17 03:46:46;;;;;;;37.10;19.98;;;;;;;;;;4985865;28;20107;-59
2021/09/17 03:49:12;;;;;;;45.45;19.58;;;;;;;;;;4992315;28;20762;-60
2021/09/17 03:51:42;;;;;;;43.85;19.05;;;;;;;;;;4996138;28;20044;-59
2021/09/17 03:54:10;;;;;;;43.33;18.83;;;;;;;;;;5006975;28;20088;-59
2021/09/17 03:56:38;;;;;;;38.15;19.10;;;;;;;;;;4981244;28;20108;-60
2021/09/17 03:59:04;;;;;;;44.80;19.27;;;;;;;;;;4992633;28;20146;-60
2021/09/17 04:01:30;;;;;;;44.10;20.92;;;;;;;;;;4979895;28;20727;-60
2021/09/17 04:03:59;;;;;;;37.55;18.98;;;;;;;;;;4961376;28;20466;-60
2021/09/17 04:06:24;;;;;;;41.75;20.50;;;;;;;;;;4977158;28;20021;-59
2021/09/17 04:08:50;;;;;;;45.17;19.77;;;;;;;;;;4975799;28;22033;-60
2021/09/17 04:11:21;;;;;;;43.90;20.15;;;;;;;;;;4997093;28;21245;-60
2021/09/17 04:13:49;;;;;;;39.97;19.63;;;;;;;;;;4994061;28;21083;-60
2021/09/17 04:16:19;;;;;;;48.65;20.02;;;;;;;;;;4996710;28;20378;-60
2021/09/17 04:18:47;;;;;;;49.03;21.27;;;;;;;;;;4977523;28;20100;-60
2021/09/17 04:21:13;;;;;;;41.75;20.10;;;;;;;;;;4992839;28;20699;-60
2021/09/17 04:23:38;;;;;;;46.20;20.70;;;;;;;;;;4995343;28;20041;-60
2021/09/17 04:26:06;;;;;;;47.13;19.98;;;;;;;;;;4995381;28;20034;-60
2021/09/17 04:28:39;;;;;;;47.30;21.17;;;;;;;;;;4996128;28;20152;-60
2021/09/17 04:31:05;;;;;;;40.88;19.65;;;;;;;;;;4977723;28;20551;-61
2021/09/17 04:33:30;;;;;;;47.70;19.85;;;;;;;;;;4996991;28;20061;-60
2021/09/17 04:35:56;;;;;;;43.67;20.75;;;;;;;;;;4998053;28;20057;-60
2021/09/17 04:38:25;;;;;;;46.83;19.83;;;;;;;;;;4988891;28;20504;-60
2021/09/17 04:40:53;;;;;;;51.30;20.55;;;;;;;;;;4978483;28;20038;-60
2021/09/17 04:43:18;;;;;;;37.65;19.50;;;;;;;;;;4967905;28;20029;-60
2021/09/17 04:45:46;;;;;;;43.75;20.50;;;;;;;;;;4994923;28;20037;-61
2021/09/17 04:48:12;;;;;;;43.85;20.42;;;;;;;;;;4994199;28;20035;-60
2021/09/17 04:50:40;;;;;;;44.78;19.35;;;;;;;;;;5010594;28;21087;-60
2021/09/17 04:53:06;;;;;;;48.25;20.02;;;;;;;;;;4995856;28;20109;-60
2021/09/17 04:55:39;;;;;;;44.50;19.20;;;;;;;;;;5009685;28;20021;-60
2021/09/17 04:58:09;;;;;;;44.75;19.95;;;;;;;;;;4989926;28;20560;-60
2021/09/17 05:00:36;;;;;;;45.38;20.25;;;;;;;;;;4996817;28;20039;-59
2021/09/17 05:03:02;;;;;;;43.67;20.25;;;;;;;;;;4994532;28;20625;-59
2021/09/17 05:05:33;;;;;;;43.90;21.13;;;;;;;;;;5011149;28;20073;-60
2021/09/17 05:08:02;;;;;;;47.90;19.27;;;;;;;;;;4983259;28;20038;-60
2021/09/17 05:10:33;;;;;;;39.30;19.13;;;;;;;;;;5000210;28;20036;-60
2021/09/17 05:13:03;;;;;;;44.15;19.20;;;;;;;;;;4978362;28;20037;-60
2021/09/17 05:15:29;;;;;;;43.55;19.15;;;;;;;;;;4995727;28;20866;-59
2021/09/17 05:17:59;;;;;;;40.03;17.98;;;;;;;;;;4966578;28;20111;-62
2021/09/17 05:20:27;;;;;;;45.10;20.52;;;;;;;;;;4994074;28;20041;-59
2021/09/17 05:22:57;;;;;;;42.70;19.50;;;;;;;;;;4991376;28;20187;-60
2021/09/17 05:25:25;;;;;;;44.95;20.70;;;;;;;;;;4981425;28;20045;-60
2021/09/17 05:27:50;;;;;;;47.47;21.45;;;;;;;;;;4978587;28;20026;-60
2021/09/17 05:30:17;;;;;;;40.17;19.70;;;;;;;;;;4997266;28;20150;-60
2021/09/17 05:32:42;;;;;;;37.63;18.70;;;;;;;;;;4998907;28;20026;-60
2021/09/17 05:35:11;;;;;;;43.50;18.10;;;;;;;;;;4985764;28;20033;-60
2021/09/17 05:37:39;;;;;;;39.65;19.10;;;;;;;;;;4994598;28;20026;-60
2021/09/17 05:40:06;;;;;;;39.80;19.60;;;;;;;;;;5010856;28;20037;-60
2021/09/17 05:42:34;;;;;;;35.80;17.02;;;;;;;;;;4995637;28;20330;-60
2021/09/17 05:45:03;;;;;;;42.33;18.98;;;;;;;;;;4979829;28;20034;-60
2021/09/17 05:47:34;;;;;;;37.20;19.20;;;;;;;;;;4998678;28;20037;-60
2021/09/17 05:50:00;;;;;;;30.10;17.05;;;;;;;;;;5006376;28;20096;-60
2021/09/17 05:52:25;;;;;;;38.38;17.70;;;;;;;;;;4995263;28;20082;-61
2021/09/17 05:54:51;;;;;;;51.38;19.00;;;;;;;;;;4994892;28;20034;-59
2021/09/17 05:57:16;;;;;;;35.05;17.92;;;;;;;;;;4967090;28;20481;-60
2021/09/17 05:59:47;;;;;;;39.50;17.70;;;;;;;;;;4997565;28;21418;-59
2021/09/17 06:02:15;;;;;;;32.03;17.70;;;;;;;;;;5013069;28;20061;-59
2021/09/17 06:04:48;;;;;;;29.15;15.75;;;;;;;;;;4976653;28;20639;-60
2021/09/17 06:07:14;;;;;;;34.65;16.98;;;;;;;;;;4992618;28;20041;-60
2021/09/17 06:09:39;;;;;;;38.25;16.40;;;;;;;;;;5011814;28;20039;-60
2021/09/17 06:12:05;;;;;;;33.25;16.00;;;;;;;;;;4994812;28;20041;-60
2021/09/17 06:14:31;;;;;;;30.15;17.13;;;;;;;;;;4997378;28;20028;-60
2021/09/17 06:16:59;;;;;;;30.35;16.48;;;;;;;;;;4979169;28;20161;-60
2021/09/17 06:19:28;;;;;;;29.35;15.63;;;;;;;;;;4977959;28;20034;-60
2021/09/17 06:21:53;;;;;;;31.25;16.45;;;;;;;;;;4965510;28;20038;-62
2021/09/17 06:24:22;;;;;;;32.90;15.52;;;;;;;;;;4997766;28;20049;-62
2021/09/17 06:26:49;;;;;;;29.80;14.38;;;;;;;;;;4999864;28;20527;-61
2021/09/17 06:29:15;;;;;;;28.33;15.32;;;;;;;;;;4980900;28;20117;-61
2021/09/17 06:31:44;;;;;;;28.58;15.13;;;;;;;;;;5000284;28;20026;-62
2021/09/17 06:34:09;;;;;;;25.02;15.15;;;;;;;;;;4980873;28;20037;-62
2021/09/17 06:36:37;;;;;;;23.85;14.00;;;;;;;;;;4982806;28;20049;-62
2021/09/17 06:39:03;;;;;;;35.10;16.25;;;;;;;;;;4981531;28;20096;-62
2021/09/17 06:41:31;;;;;;;26.98;15.00;;;;;;;;;;4998081;28;20045;-62
2021/09/17 06:44:00;;;;;;;30.63;15.40;;;;;;;;;;4996563;28;20095;-62
2021/09/17 06:46:28;;;;;;;24.38;13.75;;;;;;;;;;4983524;28;20503;-61
2021/09/17 06:48:56;;;;;;;21.55;13.15;;;;;;;;;;4982700;28;20419;-62
2021/09/17 06:51:24;;;;;;;21.35;12.77;;;;;;;;;;4997505;28;20038;-62
2021/09/17 06:53:50;;;;;;;19.95;12.10;;;;;;;;;;4981325;28;20045;-62
2021/09/17 06:56:15;;;;;;;19.52;11.27;;;;;;;;;;4997477;28;20477;-62
2021/09/17 06:58:41;;;;;;;23.67;11.65;;;;;;;;;;4997886;28;20123;-63
2021/09/17 07:01:06;;;;;;;17.65;11.20;;;;;;;;;;4997484;28;20634;-62
2021/09/17 07:03:33;;;;;;;23.60;11.70;;;;;;;;;;5015042;28;20556;-62
2021/09/17 07:06:01;;;;;;;17.55;11.15;;;;;;;;;;4965593;28;20069;-62
2021/09/17 07:08:29;;;;;;;21.52;11.50;;;;;;;;;;4980342;28;20538;-62
2021/09/17 07:10:54;;;;;;;21.67;11.38;;;;;;;;;;5006640;28;21049;-62
2021/09/17 07:13:23;;;;;;;17.30;10.65;;;;;;;;;;4957090;28;20042;-61
2021/09/17 07:15:54;;;;;;;18.42;10.80;;;;;;;;;;4997268;28;20041;-62
2021/09/17 07:18:22;;;;;;;14.63;9.60;;;;;;;;;;4998529;28;20484;-61
2021/09/17 07:20:51;;;;;;;16.15;10.10;;;;;;;;;;4980153;28;20045;-62
2021/09/17 07:23:16;;;;;;;19.25;10.30;;;;;;;;;;4975824;28;20056;-63
2021/09/17 07:25:42;;;;;;;14.05;9.50;;;;;;;;;;4988742;28;20033;-61
2021/09/17 07:28:08;;;;;;;18.02;8.27;;;;;;;;;;4993066;28;20092;-62
2021/09/17 07:30:34;;;;;;;16.40;8.98;;;;;;;;;;4997681;28;20062;-64
2021/09/17 07:33:00;;;;;;;12.02;8.88;;;;;;;;;;4997906;28;20033;-62
2021/09/17 07:35:28;;;;;;;16.05;8.52;;;;;;;;;;4997935;28;20117;-61
2021/09/17 07:37:59;;;;;;;14.52;8.07;;;;;;;;;;5005231;28;20029;-62
2021/09/17 07:40:27;;;;;;;13.40;8.02;;;;;;;;;;4999191;28;20061;-62
2021/09/17 07:42:55;;;;;;;14.90;8.65;;;;;;;;;;5000940;28;20541;-62
2021/09/17 07:45:24;;;;;;;13.95;8.40;;;;;;;;;;4985374;28;20065;-62
2021/09/17 07:47:50;;;;;;;15.27;8.88;;;;;;;;;;4983935;28;20034;-61
2021/09/17 07:50:19;;;;;;;14.07;9.35;;;;;;;;;;4996737;28;20034;-61
2021/09/17 07:52:44;;;;;;;15.93;10.32;;;;;;;;;;4980534;28;20025;-63
2021/09/17 07:55:10;;;;;;;14.07;10.00;;;;;;;;;;4997891;28;20076;-61
2021/09/17 07:57:36;;;;;;;15.55;11.00;;;;;;;;;;4997610;28;20116;-62
2021/09/17 08:00:05;;;;;;;18.52;10.27;;;;;;;;;;5013618;28;20038;-63
2021/09/17 08:02:33;;;;;;;13.90;10.00;;;;;;;;;;4995314;28;20124;-62
2021/09/17 08:05:04;;;;;;;15.63;9.55;;;;;;;;;;4998076;28;20108;-62
2021/09/17 08:07:30;;;;;;;14.60;9.80;;;;;;;;;;4997602;28;20037;-62
2021/09/17 08:09:58;;;;;;;18.70;8.98;;;;;;;;;;4963963;28;20045;-61
2021/09/17 08:12:25;;;;;;;15.65;9.75;;;;;;;;;;4998146;28;20026;-61
2021/09/17 08:14:51;;;;;;;12.38;9.18;;;;;;;;;;4978776;28;20377;-62
2021/09/17 08:17:16;;;;;;;15.52;9.35;;;;;;;;;;4997079;28;20030;-61
2021/09/17 08:19:45;;;;;;;18.92;9.35;;;;;;;;;;4996323;28;22289;-62
2021/09/17 08:22:16;;;;;;;12.63;8.10;;;;;;;;;;4995558;28;20133;-62
2021/09/17 08:24:43;;;;;;;12.05;7.82;;;;;;;;;;4961096;28;20473;-62
2021/09/17 08:27:11;;;;;;;10.02;6.72;;;;;;;;;;4972389;28;20022;-63
2021/09/17 08:29:39;;;;;;;8.85;6.15;;;;;;;;;;4978999;28;20045;-63
2021/09/17 08:32:05;;;;;;;12.20;5.82;;;;;;;;;;4983801;28;20026;-62
2021/09/17 08:34:31;;;;;;;4.85;3.33;;;;;;;;;;4978039;28;20042;-62
2021/09/17 08:36:56;;;;;;;7.13;3.45;;;;;;;;;;4964421;28;20076;-63
2021/09/17 08:39:22;;;;;;;7.20;2.42;;;;;;;;;;4979414;28;20072;-62
2021/09/17 08:41:48;;;;;;;3.72;2.30;;;;;;;;;;4990252;28;20152;-62
2021/09/17 08:44:16;;;;;;;3.25;1.65;;;;;;;;;;4980005;28;20045;-62
2021/09/17 08:46:42;;;;;;;6.88;2.53;;;;;;;;;;5008638;28;20358;-61
2021/09/17 08:49:09;;;;;;;6.45;1.50;;;;;;;;;;5016965;28;20038;-62
2021/09/17 08:51:35;;;;;;;7.35;1.60;;;;;;;;;;5003575;28;21985;-63
2021/09/17 08:54:03;;;;;;;3.67;2.05;;;;;;;;;;4998617;28;20586;-62
2021/09/17 08:56:30;;;;;;;1.77;1.33;;;;;;;;;;4979918;28;20033;-62
2021/09/17 08:59:01;;;;;;;2.40;1.50;;;;;;;;;;4991735;28;20022;-62
2021/09/17 09:01:30;;;;;;;4.85;1.67;;;;;;;;;;5001862;28;20918;-62
2021/09/17 09:04:00;;;;;;;4.38;1.30;;;;;;;;;;5001491;28;20068;-62
2021/09/17 09:06:27;;;;;;;2.88;1.70;;;;;;;;;;4997759;28;20040;-62
2021/09/17 09:08:55;;;;;;;2.10;1.50;;;;;;;;;;5001925;28;20045;-62
2021/09/17 09:11:26;;;;;;;1.58;1.25;;;;;;;;;;4999915;28;20030;-62
2021/09/17 09:14:08;;;;;;;3.08;1.10;;;;;;;;;;5007250;28;20076;-62
2021/09/17 09:16:38;;;;;;;2.80;0.93;;;;;;;;;;5000367;28;20140;-62
2021/09/17 09:19:19;;;;;;;2.47;1.10;;;;;;;;;;4998047;28;20659;-62
2021/09/17 09:21:48;;;;;;;2.00;1.23;;;;;;;;;;5001465;28;20025;-62
2021/09/17 09:24:17;;;;;;;3.05;1.58;;;;;;;;;;4974340;28;20037;-62
2021/09/17 09:26:45;;;;;;;3.25;1.40;;;;;;;;;;4995319;28;20037;-62
2021/09/17 09:29:29;;;;;;;3.47;1.48;;;;;;;;;;4998002;28;20033;-62
2021/09/17 09:32:00;;;;;;;4.93;1.30;;;;;;;;;;4998968;28;20030;-62
2021/09/17 09:34:44;;;;;;;6.05;1.10;;;;;;;;;;4998854;28;20041;-63
2021/09/17 09:37:13;;;;;;;1.77;1.10;;;;;;;;;;4998146;28;20037;-62
2021/09/17 09:39:49;;;;;;;3.53;1.30;;;;;;;;;;4998460;28;20048;-62
2021/09/17 09:42:17;;;;;;;3.08;1.27;;;;;;;;;;4997282;28;20037;-62
2021/09/17 09:45:05;;;;;;;1.40;1.20;;;;;;;;;;5011837;28;20366;-63
2021/09/17 09:47:37;;;;;;;5.68;1.58;;;;;;;;;;4992650;28;20052;-61
2021/09/17 09:50:06;;;;;;;1.20;1.00;;;;;;;;;;4995738;28;20088;-62
2021/09/17 09:52:36;;;;;;;3.22;1.13;;;;;;;;;;4971985;28;20037;-62
2021/09/17 09:55:04;;;;;;;4.10;1.25;;;;;;;;;;5000023;28;20469;-62
2021/09/17 09:57:31;;;;;;;0.90;0.80;;;;;;;;;;5013576;28;20022;-62
2021/09/17 10:00:06;;;;;;;4.38;1.38;;;;;;;;;;4977707;28;20037;-61
2021/09/17 10:02:33;;;;;;;2.53;0.90;;;;;;;;;;4996547;28;20033;-62
2021/09/17 10:04:58;;;;;;;2.47;0.73;;;;;;;;;;5004694;28;20056;-62
2021/09/17 10:07:27;;;;;;;4.80;1.05;;;;;;;;;;4998621;28;20957;-61
2021/09/17 10:09:52;;;;;;;1.00;0.63;;;;;;;;;;4989794;28;20033;-62
2021/09/17 10:12:27;;;;;;;2.58;0.95;;;;;;;;;;4998133;28;20034;-62
2021/09/17 10:14:56;;;;;;;0.93;0.50;;;;;;;;;;4991917;28;20222;-62
2021/09/17 10:17:24;;;;;;;1.50;0.68;;;;;;;;;;4992305;28;20669;-62
2021/09/17 10:19:51;;;;;;;5.32;0.70;;;;;;;;;;4990315;28;20404;-62
2021/09/17 10:22:26;;;;;;;3.28;0.57;;;;;;;;;;4979263;28;20038;-63
2021/09/17 10:25:16;;;;;;;5.75;0.80;;;;;;;;;;5014373;28;20083;-62
2021/09/17 10:27:47;;;;;;;2.50;0.70;;;;;;;;;;4971190;28;20045;-61
2021/09/17 10:30:16;;;;;;;1.75;0.90;;;;;;;;;;4990877;28;20275;-62
2021/09/17 10:32:46;;;;;;;7.22;1.00;;;;;;;;;;4979331;28;21982;-63
2021/09/17 10:35:12;;;;;;;4.03;0.88;;;;;;;;;;4988141;28;20959;-61
2021/09/17 10:37:50;;;;;;;4.13;0.70;;;;;;;;;;5016589;28;20030;-61
2021/09/17 10:40:16;;;;;;;3.03;0.75;;;;;;;;;;4989617;28;20128;-62
2021/09/17 10:43:11;;;;;;;1.45;0.70;;;;;;;;;;4994622;28;20792;-62
2021/09/17 10:45:38;;;;;;;1.73;0.70;;;;;;;;;;4982304;28;20050;-62
2021/09/17 10:48:04;;;;;;;1.58;1.10;;;;;;;;;;4994884;28;20119;-63
2021/09/17 10:50:38;;;;;;;1.63;0.90;;;;;;;;;;4994474;28;20046;-61
2021/09/17 10:53:08;;;;;;;2.17;0.95;;;;;;;;;;4992729;28;20044;-62
2021/09/17 10:55:43;;;;;;;3.50;1.08;;;;;;;;;;4988818;28;20034;-62
2021/09/17 10:58:24;;;;;;;2.65;0.70;;;;;;;;;;4986224;28;21046;-62
2021/09/17 11:01:16;;;;;;;2.38;0.90;;;;;;;;;;5007820;28;20041;-64
2021/09/17 11:03:43;;;;;;;1.75;0.82;;;;;;;;;;4990160;28;20057;-62
2021/09/17 11:06:29;;;;;;;1.05;0.80;;;;;;;;;;5010648;28;20033;-61
2021/09/17 11:09:00;;;;;;;3.30;0.73;;;;;;;;;;5003161;28;20037;-62
2021/09/17 11:11:32;;;;;;;3.13;0.90;;;;;;;;;;4986231;28;20041;-62
2021/09/17 11:14:00;;;;;;;2.83;1.00;;;;;;;;;;4992079;28;20033;-62
2021/09/17 11:16:27;;;;;;;4.63;0.90;;;;;;;;;;4994846;28;20529;-62
2021/09/17 11:18:56;;;;;;;4.60;0.73;;;;;;;;;;4970384;28;20045;-62
2021/09/17 11:21:24;;;;;;;2.30;0.80;;;;;;;;;;4993379;28;20692;-62
2021/09/17 11:23:53;;;;;;;4.78;1.00;;;;;;;;;;4990508;28;20033;-63
2021/09/17 11:26:22;;;;;;;1.58;0.60;;;;;;;;;;4980698;28;20917;-63
2021/09/17 11:29:00;;;;;;;3.40;0.60;;;;;;;;;;4994045;28;20051;-63
2021/09/17 11:31:31;;;;;;;2.20;1.23;;;;;;;;;;4993442;28;20045;-63
2021/09/17 11:33:58;;;;;;;1.98;0.45;;;;;;;;;;5006700;28;20052;-62
2021/09/17 11:36:34;;;;;;;1.30;0.45;;;;;;;;;;4996631;28;20054;-62
2021/09/17 11:39:14;;;;;;;4.22;0.68;;;;;;;;;;4984766;28;20025;-63
2021/09/17 11:41:42;;;;;;;1.45;0.40;;;;;;;;;;4993359;28;22115;-63
2021/09/17 11:44:08;;;;;;;1.42;0.45;;;;;;;;;;4991946;28;20034;-63
2021/09/17 11:46:35;;;;;;;1.77;0.50;;;;;;;;;;4990000;28;20056;-63
2021/09/17 11:49:01;;;;;;;3.75;0.75;;;;;;;;;;4970747;28;20033;-63
2021/09/17 11:51:27;;;;;;;1.23;0.43;;;;;;;;;;4994588;28;20072;-62
2021/09/17 11:53:53;;;;;;;3.15;0.60;;;;;;;;;;4993432;28;20112;-62
2021/09/17 11:56:18;;;;;;;4.40;0.70;;;;;;;;;;4994929;28;20528;-63
2021/09/17 11:58:45;;;;;;;2.83;0.73;;;;;;;;;;4993889;28;20025;-62
2021/09/17 12:01:25;;;;;;;0.65;0.50;;;;;;;;;;4991872;28;20021;-61
2021/09/17 12:03:52;;;;;;;2.85;0.60;;;;;;;;;;4994002;28;20674;-64
2021/09/17 12:06:17;;;;;;;1.92;0.50;;;;;;;;;;4993270;28;20116;-61
2021/09/17 12:08:44;;;;;;;1.42;0.50;;;;;;;;;;5011267;28;20033;-62
2021/09/17 12:11:09;;;;;;;3.17;0.93;;;;;;;;;;4977506;28;20519;-62
2021/09/17 12:13:35;;;;;;;1.38;0.70;;;;;;;;;;5002310;28;20034;-62
2021/09/17 12:16:06;;;;;;;1.08;0.52;;;;;;;;;;4992066;28;20040;-62
2021/09/17 12:18:32;;;;;;;1.50;0.65;;;;;;;;;;4997512;28;20449;-64
2021/09/17 12:20:59;;;;;;;0.88;0.52;;;;;;;;;;5000030;28;21000;-62
2021/09/17 12:23:31;;;;;;;0.77;0.60;;;;;;;;;;4982363;28;20026;-64
2021/09/17 12:26:05;;;;;;;6.82;0.63;;;;;;;;;;4996353;28;20056;-63
2021/09/17 12:28:30;;;;;;;3.75;0.57;;;;;;;;;;5014540;28;20120;-62
2021/09/17 12:30:56;;;;;;;1.65;0.57;;;;;;;;;;4979586;28;20146;-62
2021/09/17 12:33:23;;;;;;;1.45;0.60;;;;;;;;;;4979535;28;20072;-63
2021/09/17 12:35:53;;;;;;;2.22;0.63;;;;;;;;;;4998629;28;20053;-63
2021/09/17 12:38:20;;;;;;;1.92;0.80;;;;;;;;;;4996534;28;20116;-62
2021/09/17 12:40:47;;;;;;;1.20;0.88;;;;;;;;;;4993579;28;20124;-62
2021/09/17 12:43:16;;;;;;;0.95;0.60;;;;;;;;;;4996292;28;20140;-62
2021/09/17 12:45:55;;;;;;;2.42;0.80;;;;;;;;;;5010038;28;20037;-62
2021/09/17 12:48:24;;;;;;;3.65;0.82;;;;;;;;;;4995062;28;20083;-63
2021/09/17 12:50:50;;;;;;;2.72;0.90;;;;;;;;;;4986867;28;20060;-62
2021/09/17 12:53:20;;;;;;;2.35;0.68;;;;;;;;;;4997829;28;20033;-62
2021/09/17 12:55:47;;;;;;;7.15;0.93;;;;;;;;;;4998700;28;20038;-62
2021/09/17 12:58:17;;;;;;;2.83;1.20;;;;;;;;;;5012264;28;20740;-62
2021/09/17 13:00:44;;;;;;;3.58;0.60;;;;;;;;;;4974938;28;21238;-62
2021/09/17 13:03:15;;;;;;;3.40;1.05;;;;;;;;;;4982596;28;20026;-62
2021/09/17 13:05:41;;;;;;;5.40;1.88;;;;;;;;;;4997751;28;20649;-62
2021/09/17 13:08:10;;;;;;;3.50;0.95;;;;;;;;;;4979790;28;20057;-62
2021/09/17 13:10:39;;;;;;;2.30;0.70;;;;;;;;;;4980302;28;20052;-62
2021/09/17 13:13:05;;;;;;;3.03;1.10;;;;;;;;;;4997539;28;20076;-62
2021/09/17 13:15:31;;;;;;;1.65;1.00;;;;;;;;;;5009257;28;20088;-62
2021/09/17 13:17:57;;;;;;;2.75;0.80;;;;;;;;;;5009996;28;20029;-62
2021/09/17 13:20:23;;;;;;;3.38;1.48;;;;;;;;;;4991436;28;20037;-62
2021/09/17 13:22:52;;;;;;;2.88;0.82;;;;;;;;;;4991671;28;20022;-62
2021/09/17 13:25:19;;;;;;;2.20;0.90;;;;;;;;;;5024968;28;20461;-61
2021/09/17 13:27:49;;;;;;;2.47;0.82;;;;;;;;;;5023988;28;20100;-62
2021/09/17 13:30:15;;;;;;;2.15;0.70;;;;;;;;;;5014610;28;20076;-62
2021/09/17 13:32:40;;;;;;;1.55;0.60;;;;;;;;;;5019123;28;20041;-62
2021/09/17 13:35:09;;;;;;;3.15;0.63;;;;;;;;;;5007415;28;20032;-62
2021/09/17 13:37:36;;;;;;;3.35;0.50;;;;;;;;;;4991746;28;20033;-63
2021/09/17 13:40:02;;;;;;;3.00;0.82;;;;;;;;;;5007251;28;20037;-62
2021/09/17 13:42:28;;;;;;;3.05;0.80;;;;;;;;;;5025302;28;20081;-62
2021/09/17 13:44:54;;;;;;;6.75;1.00;;;;;;;;;;4974545;28;20045;-62
2021/09/17 13:47:20;;;;;;;1.80;0.57;;;;;;;;;;4991477;28;20014;-63
2021/09/17 13:49:46;;;;;;;2.15;0.30;;;;;;;;;;4993029;28;20030;-62
2021/09/17 13:52:12;;;;;;;1.77;0.90;;;;;;;;;;4990820;28;20274;-62
2021/09/17 13:54:39;;;;;;;2.03;0.68;;;;;;;;;;4991454;28;20065;-63
2021/09/17 13:57:05;;;;;;;2.30;0.85;;;;;;;;;;5025790;28;20033;-62
2021/09/17 13:59:31;;;;;;;6.72;0.95;;;;;;;;;;5004488;28;20030;-62
2021/09/17 14:01:57;;;;;;;0.40;0.32;;;;;;;;;;5025224;28;20026;-62
2021/09/17 14:04:24;;;;;;;5.93;0.80;;;;;;;;;;5002150;28;20102;-62
2021/09/17 14:06:49;;;;;;;1.10;0.60;;;;;;;;;;4991097;28;20030;-62
2021/09/17 14:09:15;;;;;;;3.65;0.60;;;;;;;;;;4994934;28;20037;-62
2021/09/17 14:11:42;;;;;;;1.85;0.57;;;;;;;;;;5007858;28;20030;-62
2021/09/17 14:14:07;;;;;;;2.45;0.55;;;;;;;;;;5006615;28;20088;-63
2021/09/17 14:16:33;;;;;;;2.33;0.70;;;;;;;;;;4973085;28;20042;-62
2021/09/17 14:18:59;;;;;;;2.72;0.70;;;;;;;;;;5023428;28;20429;-62
2021/09/17 14:21:25;;;;;;;2.95;0.40;;;;;;;;;;5005724;28;20045;-62
2021/09/17 14:23:50;;;;;;;1.95;0.57;;;;;;;;;;5021421;28;20064;-61
2021/09/17 14:26:16;;;;;;;1.30;0.50;;;;;;;;;;4995975;28;20026;-61
2021/09/17 14:28:42;;;;;;;5.00;1.00;;;;;;;;;;5002366;28;20030;-62
2021/09/17 14:31:08;;;;;;;2.60;0.82;;;;;;;;;;5023151;28;20029;-63
2021/09/17 14:33:34;;;;;;;0.30;0.30;;;;;;;;;;5006031;28;20107;-63